Terminal Aerodrome Forecast
Issued by NWS

Home | Current Version | Previous Version | Text Only | Print | Product List | Glossary On
Versions: 1 2 3 4 5 6 7 8 9 10 11 12
000
FTUS46 KPDT 031123
TAFBDN
TAF
KBDN 031123Z 0312/0412 21004KT P6SM SKC
     FM031700 36005KT P6SM FEW250
     FM032100 35009G15KT P6SM SKC
     FM040300 33007KT P6SM SKC
     FM040900 20005KT P6SM SKC=

USA.gov is the U.S. government's official web portal to all federal, state and local government web resources and services.